Terminal Aerodrome Forecast
Issued by NWS State College, PA

Home | Current Version | Previous Version | Text Only | Print | Product List | Glossary On
Versions: 1 2 3 4 5 6 7 8 9 10 11 12 13 14 15 16 17 18 19 20 21 22 23 24 25
000
FTUS41 KCTP 172349
TAFIPT
TAF
KIPT 172349Z 1800/1824 VRB03KT P6SM SCT250
     FM180800 09003KT P6SM OVC100
     FM181300 10004KT P6SM -RA OVC050
     FM181600 11007KT 3SM RA OVC010
     FM182100 10008KT 4SM -RA OVC010=

USA.gov is the U.S. government's official web portal to all federal, state and local government web resources and services.